Nearby METAR* Reports

*"METAR [Météorologique Aviation Régulière] is the international standard code format for hourly surface weather observations which is analogous to the SA coding currently used in the US. The acronym roughly translates from French as Aviation Routine Weather Report." (Source: http://gosic.org/wdcmet/us-metar-faq-taf)

 

KTEB - Teterboro, New Jersey, USA
Distance from station: ENE 2mi, 3km
Updated: 04/25/2019 2:51am
Clear
Clear
 Wind from NE
Wind: NE 5 mph , 7 km/h
Temperature: 50°F , 10°C
Wind Chill: 48°F , 9°C
Dew Point: 37°F , 3°C
Humidity: 62%
Barometer: 29.94 inHg , 1013.9 hPa
Clouds: Clear
Visibility: 10 miles , 16 km
2019/04/25 06:51 KTEB 250651Z 05004KT 10SM CLR 10/03 A2994 RMK AO2 SLP137 T01000028
KNYC - Nyc/Central Park, New York, USA
Distance from station: SE 8mi, 13km
Updated: 04/25/2019 2:51am
Clear
Clear
 Wind from varies
Wind: varies 5 mph , 7 km/h
Temperature: 52°F , 11°C
Dew Point: 37°F , 3°C
Humidity: 58%
Barometer: 29.96 inHg , 1014.6 hPa
Clouds: Clear
Visibility: 10 miles , 16 km
2019/04/25 06:51 KNYC 250651Z AUTO VRB04KT 10SM CLR 11/03 A2996 RMK AO2 SLP137 T01060033 $
KCDW - Caldwell, New Jersey, USA
Distance from station: W 11mi, 17km
Updated: 04/25/2019 2:53am
Clear
Clear
 Wind from NE
Wind: NE 3 mph , 6 km/h
Temperature: 50°F , 10°C
Dew Point: 37°F , 3°C
Humidity: 62%
Barometer: 29.95 inHg , 1014.2 hPa
Clouds: Clear
Visibility: 10 miles , 16 km
2019/04/25 06:53 KCDW 250653Z AUTO 04003KT 10SM CLR 10/03 A2995 RMK AO2 SLP146 T01000033
 
KLGA - Nyc/La Guardia, New York, USA
Distance from station: ESE 12mi, 19km
Updated: 04/25/2019 2:51am
Mostly cloudy
Mostly cloudy
 Wind from NE
Wind: NE 10 mph , 17 km/h
Temperature: 52°F , 11°C
Dew Point: 37°F , 3°C
Humidity: 58%
Barometer: 29.94 inHg , 1013.9 hPa
Clouds: Mostly cloudy
Visibility: 10 miles , 16 km
Cloud details: Partly cloudy 22000 ft
Mostly cloudy 25000 ft
2019/04/25 06:51 KLGA 250651Z 05009KT 10SM SCT220 BKN250 11/03 A2994 RMK AO2 SLP137 T01060033
KEWR - Newark, New Jersey, USA
Distance from station: SSW 13mi, 20km
Updated: 04/25/2019 2:51am
Overcast
Overcast
 Wind from NE
Wind: NE 8 mph , 13 km/h
Temperature: 52°F , 11°C
Dew Point: 39°F , 4°C
Humidity: 62%
Barometer: 29.94 inHg , 1013.9 hPa
Clouds: Overcast
Visibility: 10 miles , 16 km
Cloud details: Mostly cloudy 20000 ft
Overcast 25000 ft
2019/04/25 06:51 KEWR 250651Z 04007KT 10SM BKN200 OVC250 11/04 A2994 RMK AO2 SLP137 T01110039
KMMU - Morristown Muni, New Jersey, USA
Distance from station: WSW 18mi, 29km
Updated: 04/25/2019 3:30am
Clear
Clear
 Wind from calm
Wind: Calm
Temperature: 48°F , 9°C
Dew Point: 41°F , 5°C
Humidity: 76%
Barometer: 29.92 inHg , 1013.2 hPa
Clouds: Clear
Visibility: 10 miles , 16 km
2019/04/25 07:30 KMMU 250730Z AUTO 00000KT 10SM CLR 09/05 A2992 RMK AO2
 
KLDJ - Linden, New Jersey, USA
Distance from station: SSW 19mi, 30km
Updated: 04/25/2019 3:35am
Clear
Clear
 Wind from ENE
Wind: ENE 8 mph , 13 km/h
Temperature: 54°F , 12°C
Dew Point: 37°F , 3°C
Humidity: 54%
Barometer: 29.92 inHg , 1013.2 hPa
Clouds: Clear
Visibility: 10 miles , 16 km
2019/04/25 07:35 KLDJ 250735Z AUTO 07007KT 10SM CLR 12/03 A2992 RMK AO2 T01150031
KJFK - Nyc/Jfk Arpt, New York, USA
Distance from station: SE 23mi, 36km
Updated: 04/25/2019 2:51am
Mostly cloudy
Mostly cloudy
 Wind from NNE
Wind: NNE 12 mph , 19 km/h
Temperature: 52°F , 11°C
Dew Point: 39°F , 4°C
Humidity: 62%
Barometer: 29.95 inHg , 1014.2 hPa
Clouds: Mostly cloudy
Visibility: 10 miles , 16 km
Cloud details: Mostly cloudy 25000 ft
2019/04/25 06:51 KJFK 250651Z 02010KT 10SM BKN250 11/04 A2995 RMK AO2 SLP140 T01060044
KHPN - White Plains, New York, USA
Distance from station: NE 25mi, 40km
Updated: 04/25/2019 2:56am
Few Clouds
Few Clouds
 Wind from N
Wind: N 6 mph , 9 km/h
Temperature: 45°F , 7°C
Wind Chill: 42°F , 6°C
Dew Point: 36°F , 2°C
Humidity: 71%
Barometer: 29.93 inHg , 1013.5 hPa
Clouds: Few Clouds
Visibility: 10 miles , 16 km
Cloud details: Few Clouds 1000 ft
2019/04/25 06:56 KHPN 250656Z 35005KT 10SM FEW010 07/02 A2993 RMK AO2 SLP135 T00670017
 
KSMQ - Somerville, New Jersey, USA
Distance from station: WSW 35mi, 56km
Updated: 04/25/2019 2:53am
Clear
Clear
 Wind from N
Wind: N 5 mph , 7 km/h
Temperature: 52°F , 11°C
Dew Point: 41°F , 5°C
Humidity: 67%
Barometer: 29.90 inHg , 1012.5 hPa
Clouds: Clear
Visibility: 10 miles , 16 km
2019/04/25 06:53 KSMQ 250653Z AUTO 35004KT 10SM CLR 11/05 A2990 RMK AO2 SLP125 T01060050
K12N - Andover, New Jersey, USA
Distance from station: WNW 36mi, 57km
Updated: 04/25/2019 2:54am

 Wind from NE
Wind: NE 5 mph , 7 km/h
Temperature: 46°F , 8°C
Wind Chill: 44°F , 7°C
Dew Point: 37°F , 3°C
Humidity: 71%
Barometer: 29.92 inHg , 1013.2 hPa
2019/04/25 06:54 K12N 250654Z AUTO 04004KT 08/03 A2992 RMK AO1 SLP132 T00830033
KFRG - Farmingdale, New York, USA
Distance from station: ESE 36mi, 58km
Updated: 04/25/2019 2:53am
Clear
Clear
 Wind from NNE
Wind: NNE 7 mph , 11 km/h
Temperature: 46°F , 8°C
Wind Chill: 42°F , 6°C
Dew Point: 39°F , 4°C
Humidity: 76%
Barometer: 29.95 inHg , 1014.2 hPa
Clouds: Clear
Visibility: 10 miles , 16 km
2019/04/25 06:53 KFRG 250653Z AUTO 03006KT 10SM CLR 08/04 A2995 RMK AO2 SLP142 T00830039 $
 
KFWN - Sussex, New Jersey, USA
Distance from station: NW 37mi, 60km
Updated: 04/25/2019 2:53am
Clear
Clear
 Wind from calm
Wind: Calm
Temperature: 45°F , 7°C
Dew Point: 37°F , 3°C
Humidity: 76%
Barometer: 29.94 inHg , 1013.9 hPa
Clouds: Clear
Visibility: 10 miles , 16 km
2019/04/25 06:53 KFWN 250653Z AUTO 00000KT 10SM CLR 07/03 A2994 RMK AO2 SLP139 T00720033
KSWF - Newburgh/Stewart, New York, USA
Distance from station: 0 44mi, 72km
Updated: 04/25/2019 2:45am
Clear
Clear
 Wind from calm
Wind: Calm
Temperature: 43°F , 6°C
Dew Point: 39°F , 4°C
Humidity: 87%
Barometer: 29.94 inHg , 1013.9 hPa
Clouds: Clear
Visibility: 10 miles , 16 km
2019/04/25 06:45 KSWF 250645Z 00000KT 10SM SKC 06/04 A2994
KMGJ - Montgomery, New York, USA
Distance from station: NNW 47mi, 75km
Updated: 04/25/2019 2:54am
Clear
Clear
 Wind from SW
Wind: SW 5 mph , 7 km/h
Temperature: 39°F , 4°C
Wind Chill: 35°F , 2°C
Dew Point: 36°F , 2°C
Humidity: 87%
Barometer: 29.94 inHg , 1013.9 hPa
Clouds: Clear
Visibility: 10 miles , 16 km
2019/04/25 06:54 KMGJ 250654Z AUTO 23004KT 10SM CLR 04/02 A2994 RMK AO2 SLP138 T00390022 TSNO
 
KDXR - Danbury, Connecticut, USA
Distance from station: NE 47mi, 76km
Updated: 04/25/2019 2:53am
Clear
Clear
 Wind from calm
Wind: Calm
Temperature: 45°F , 7°C
Dew Point: 34°F , 1°C
Humidity: 66%
Barometer: 29.94 inHg , 1013.9 hPa
Clouds: Clear
Visibility: 10 miles , 16 km
2019/04/25 06:53 KDXR 250653Z AUTO 00000KT 10SM CLR 07/01 A2994 RMK AO2 SLP140 T00670011
KBLM - Belmar/Farmdale, New Jersey, USA
Distance from station: S 48mi, 77km
Updated: 04/25/2019 2:56am
Clear
Clear
 Wind from NE
Wind: NE 12 mph , 19 km/h
Temperature: 54°F , 12°C
Dew Point: 45°F , 7°C
Humidity: 72%
Barometer: 29.91 inHg , 1012.9 hPa
Clouds: Clear
Visibility: 10 miles , 16 km
2019/04/25 06:56 KBLM 250656Z AUTO 04010KT 10SM CLR 12/07 A2991 RMK AO2 SLP134 T01220067